Time;durP1;ratioP1;P1;durP2;ratioP2;P2;SDS_P1;SDS_P2;PMS_P1;PMS_P2;Temp;Humidity;BMP_temperature;BMP_pressure;BME280_temperature;BME280_humidity;BME280_pressure;Samples;Min_cycle;Max_cycle;Signal;HPM_P1;HPM_P2
2021/06/26 00:00:31;;;;;;;43.70;27.67;;;14.50;98.70;;;;;;5033019;28;20396;-67
2021/06/26 00:02:57;;;;;;;43.97;26.60;;;14.50;98.80;;;;;;5031579;28;20021;-67
2021/06/26 00:05:23;;;;;;;42.08;28.48;;;14.50;98.80;;;;;;5032950;28;20037;-67
2021/06/26 00:07:48;;;;;;;45.47;29.55;;;14.50;98.80;;;;;;5032992;28;20017;-67
2021/06/26 00:10:14;;;;;;;39.53;25.48;;;14.40;98.90;;;;;;5032968;28;20476;-67
2021/06/26 00:12:39;;;;;;;37.40;25.83;;;14.40;98.90;;;;;;5032809;28;20104;-67
2021/06/26 00:15:08;;;;;;;39.42;26.27;;;14.40;98.90;;;;;;5032840;28;20434;-67
2021/06/26 00:17:33;;;;;;;44.45;27.73;;;14.40;99.00;;;;;;5031538;28;20025;-67
2021/06/26 00:19:59;;;;;;;43.38;28.63;;;14.40;99.00;;;;;;5033073;28;20490;-67
2021/06/26 00:22:24;;;;;;;42.95;27.80;;;14.30;99.00;;;;;;5032853;28;20025;-67
2021/06/26 00:24:50;;;;;;;48.97;29.90;;;14.40;99.10;;;;;;5035871;28;20096;-67
2021/06/26 00:27:16;;;;;;;46.00;30.55;;;14.30;99.10;;;;;;5035288;28;20029;-67
2021/06/26 00:29:41;;;;;;;55.08;34.28;;;14.30;99.10;;;;;;5036631;28;20025;-67
2021/06/26 00:32:07;;;;;;;49.65;30.63;;;14.30;99.20;;;;;;5026789;28;20040;-67
2021/06/26 00:34:32;;;;;;;49.50;30.52;;;14.30;99.20;;;;;;5036433;28;20036;-67
2021/06/26 00:36:57;;;;;;;43.40;27.02;;;14.30;99.20;;;;;;5035172;28;20387;-67
2021/06/26 00:39:23;;;;;;;38.05;26.40;;;14.30;99.50;;;;;;5036219;28;20029;-67
2021/06/26 00:41:51;;;;;;;46.40;28.17;;;14.20;99.20;;;;;;5036346;28;20076;-67
2021/06/26 00:44:17;;;;;;;44.78;27.77;;;14.20;99.20;;;;;;5036292;28;20036;-67
2021/06/26 00:46:42;;;;;;;54.85;31.83;;;14.20;99.30;;;;;;5036031;28;20025;-66
2021/06/26 00:49:08;;;;;;;52.60;31.98;;;14.20;99.30;;;;;;5036603;28;20035;-67
2021/06/26 00:51:33;;;;;;;45.80;27.95;;;14.10;99.30;;;;;;5034901;28;20036;-67
2021/06/26 00:53:59;;;;;;;46.13;28.20;;;14.10;99.40;;;;;;5036203;28;20021;-67
2021/06/26 00:56:26;;;;;;;49.70;29.25;;;14.10;99.40;;;;;;5036089;28;20030;-67
2021/06/26 00:58:54;;;;;;;49.40;31.38;;;14.10;99.40;;;;;;5036034;28;20032;-67
2021/06/26 01:01:20;;;;;;;51.45;29.67;;;14.10;99.50;;;;;;5035590;28;20030;-67
2021/06/26 01:03:46;;;;;;;43.30;28.98;;;14.00;99.50;;;;;;5035922;28;20026;-66
2021/06/26 01:06:16;;;;;;;51.03;31.83;;;14.00;99.50;;;;;;5035960;28;20052;-67
2021/06/26 01:08:42;;;;;;;59.63;33.63;;;14.00;99.50;;;;;;5036122;28;20083;-67
2021/06/26 01:11:07;;;;;;;45.53;29.38;;;14.00;99.50;;;;;;5035828;28;20538;-67
2021/06/26 01:13:33;;;;;;;42.70;29.05;;;14.00;99.60;;;;;;5035568;28;20041;-67
2021/06/26 01:15:59;;;;;;;38.53;26.13;;;14.00;99.60;;;;;;5035323;28;20033;-66
2021/06/26 01:18:24;;;;;;;31.13;22.45;;;14.00;99.50;;;;;;5035668;28;20380;-67
2021/06/26 01:20:51;;;;;;;29.50;19.65;;;13.90;99.40;;;;;;5036022;28;20022;-66
2021/06/26 01:23:16;;;;;;;32.30;20.50;;;13.80;99.30;;;;;;5035725;28;20025;-67
2021/06/26 01:25:42;;;;;;;38.85;22.33;;;13.80;99.40;;;;;;5035476;28;20017;-67
2021/06/26 01:28:08;;;;;;;39.35;24.52;;;13.70;99.40;;;;;;5035510;28;20036;-66
2021/06/26 01:30:35;;;;;;;42.65;26.15;;;13.70;99.50;;;;;;5026182;28;20519;-67
2021/06/26 01:33:02;;;;;;;38.28;24.60;;;13.70;99.50;;;;;;5035067;28;20028;-67
2021/06/26 01:35:27;;;;;;;41.05;26.08;;;13.70;99.60;;;;;;5033237;28;20030;-67
2021/06/26 01:37:54;;;;;;;39.20;25.15;;;13.60;99.60;;;;;;5034017;28;20360;-66
2021/06/26 01:40:22;;;;;;;33.08;22.52;;;13.60;99.60;;;;;;5035497;28;20053;-67
2021/06/26 01:42:49;;;;;;;34.45;23.45;;;13.60;99.60;;;;;;5035338;28;20026;-66
2021/06/26 01:45:16;;;;;;;32.65;22.27;;;13.60;99.60;;;;;;5034973;28;20021;-66
2021/06/26 01:47:46;;;;;;;34.17;21.67;;;13.60;99.60;;;;;;5035024;28;20061;-66
2021/06/26 01:50:12;;;;;;;34.55;22.58;;;13.60;99.70;;;;;;5035005;28;20025;-66
2021/06/26 01:52:38;;;;;;;39.28;25.60;;;13.60;99.70;;;;;;5035169;28;20026;-66
2021/06/26 01:55:04;;;;;;;41.75;26.95;;;13.50;99.70;;;;;;5034930;28;20040;-66
2021/06/26 01:57:30;;;;;;;38.38;23.85;;;13.60;99.70;;;;;;5034991;28;20112;-67
2021/06/26 01:59:55;;;;;;;38.40;25.58;;;13.50;99.70;;;;;;5033465;28;20172;-67
2021/06/26 02:02:21;;;;;;;38.95;26.42;;;13.60;99.70;;;;;;5034717;28;20025;-66
2021/06/26 02:04:46;;;;;;;75.55;25.40;;;13.50;99.70;;;;;;5034823;28;20112;-66
2021/06/26 02:07:12;;;;;;;45.83;27.52;;;13.50;99.80;;;;;;5034878;28;20036;-66
2021/06/26 02:09:37;;;;;;;45.33;28.25;;;13.60;99.80;;;;;;5033620;28;20365;-67
2021/06/26 02:12:03;;;;;;;54.65;31.05;;;13.60;99.80;;;;;;5034484;28;20033;-67
2021/06/26 02:14:29;;;;;;;48.60;30.23;;;13.60;99.80;;;;;;5034200;28;20045;-66
2021/06/26 02:16:54;;;;;;;44.15;27.10;;;13.60;99.80;;;;;;5034936;28;20095;-66
2021/06/26 02:19:20;;;;;;;50.80;30.30;;;13.60;99.90;;;;;;5034563;28;20029;-66
2021/06/26 02:21:45;;;;;;;43.28;27.38;;;13.60;99.90;;;;;;5034754;28;20052;-66
2021/06/26 02:24:11;;;;;;;46.13;28.33;;;13.60;99.90;;;;;;5034612;28;20029;-66
2021/06/26 02:26:36;;;;;;;47.08;26.75;;;13.60;99.80;;;;;;5034319;28;20032;-66
2021/06/26 02:29:02;;;;;;;36.10;24.63;;;13.60;99.80;;;;;;5033894;28;20078;-67
2021/06/26 02:31:27;;;;;;;43.63;25.80;;;13.60;99.80;;;;;;5034276;28;20029;-66
2021/06/26 02:33:53;;;;;;;40.45;24.67;;;13.60;99.80;;;;;;5028942;28;20480;-66
2021/06/26 02:36:18;;;;;;;45.65;26.85;;;13.60;99.80;;;;;;5014442;28;20168;-67
2021/06/26 02:38:44;;;;;;;44.47;27.88;;;13.50;99.80;;;;;;5014344;28;20466;-66
2021/06/26 02:41:09;;;;;;;46.65;29.63;;;13.50;99.90;;;;;;5014496;28;20030;-66
2021/06/26 02:43:35;;;;;;;47.17;28.30;;;13.50;99.90;;;;;;5014421;28;20029;-66
2021/06/26 02:46:00;;;;;;;50.95;30.50;;;13.50;99.90;;;;;;5026125;28;20384;-66
2021/06/26 02:48:26;;;;;;;54.65;30.90;;;13.50;99.90;;;;;;5034008;28;20029;-66
2021/06/26 02:50:51;;;;;;;54.03;30.30;;;13.50;99.90;;;;;;5033977;28;20037;-67
2021/06/26 02:53:17;;;;;;;45.72;28.50;;;13.50;99.90;;;;;;5034005;28;20029;-66
2021/06/26 02:55:42;;;;;;;48.70;28.80;;;13.50;99.90;;;;;;5033835;28;20111;-66
2021/06/26 02:58:08;;;;;;;45.47;27.50;;;13.60;99.90;;;;;;5033889;28;20097;-66
2021/06/26 03:00:34;;;;;;;56.33;31.23;;;13.60;99.90;;;;;;5032216;28;20506;-67
2021/06/26 03:02:59;;;;;;;48.03;30.15;;;13.70;99.90;;;;;;5033695;28;20108;-66
2021/06/26 03:05:27;;;;;;;64.05;34.78;;;13.70;99.90;;;;;;5033952;28;20104;-66
2021/06/26 03:07:55;;;;;;;60.58;33.40;;;13.70;99.90;;;;;;5033913;28;20460;-66
2021/06/26 03:10:21;;;;;;;51.28;30.40;;;13.80;99.90;;;;;;5033610;28;20056;-66
2021/06/26 03:12:47;;;;;;;48.88;29.58;;;13.90;99.90;;;;;;5033473;28;20049;-66
2021/06/26 03:15:14;;;;;;;49.10;28.65;;;13.90;99.90;;;;;;5031951;28;20491;-66
2021/06/26 03:17:40;;;;;;;44.60;28.15;;;14.00;99.90;;;;;;5033494;28;20048;-67
2021/06/26 03:20:07;;;;;;;55.92;32.78;;;14.00;99.90;;;;;;5033663;28;20026;-66
2021/06/26 03:22:33;;;;;;;54.75;31.42;;;14.00;99.90;;;;;;5033495;28;20364;-66
2021/06/26 03:24:59;;;;;;;52.80;30.58;;;14.10;99.90;;;;;;5033520;28;20048;-66
2021/06/26 03:27:24;;;;;;;55.40;30.95;;;14.20;99.90;;;;;;5025736;28;20108;-66
2021/06/26 03:29:50;;;;;;;64.72;35.53;;;14.20;99.90;;;;;;5013504;28;20036;-67
2021/06/26 03:32:16;;;;;;;55.25;33.00;;;14.20;99.90;;;;;;5013642;28;20030;-66
2021/06/26 03:34:41;;;;;;;54.08;31.27;;;14.30;99.90;;;;;;5012322;28;20377;-66
2021/06/26 03:37:07;;;;;;;50.70;30.25;;;14.30;99.90;;;;;;5013771;28;20036;-66
2021/06/26 03:39:32;;;;;;;48.85;29.63;;;14.30;99.90;;;;;;5013554;28;20026;-66
2021/06/26 03:41:58;;;;;;;46.72;28.42;;;14.40;99.90;;;;;;5013604;28;20448;-66
2021/06/26 03:44:23;;;;;;;45.75;28.70;;;14.40;99.90;;;;;;5013561;28;20041;-66
2021/06/26 03:46:49;;;;;;;49.65;29.67;;;14.40;99.80;;;;;;5013890;28;20030;-66
2021/06/26 03:49:14;;;;;;;46.05;28.13;;;14.40;99.80;;;;;;5013666;28;20048;-66
2021/06/26 03:51:40;;;;;;;43.15;27.83;;;14.50;99.80;;;;;;5013410;28;20030;-66
2021/06/26 03:54:06;;;;;;;41.92;25.80;;;14.50;99.80;;;;;;5012068;28;20457;-67
2021/06/26 03:56:32;;;;;;;45.00;27.23;;;14.50;99.80;;;;;;5013310;28;20032;-67
2021/06/26 03:58:59;;;;;;;49.33;30.30;;;14.50;99.70;;;;;;5024690;28;20032;-67
2021/06/26 04:01:25;;;;;;;43.72;29.20;;;14.50;99.70;;;;;;5037603;28;20025;-66
2021/06/26 04:03:51;;;;;;;47.10;29.20;;;14.60;99.80;;;;;;5037054;28;20434;-66
2021/06/26 04:06:16;;;;;;;46.85;30.15;;;14.60;99.80;;;;;;5036994;28;20060;-66
2021/06/26 04:08:42;;;;;;;58.67;33.03;;;14.60;99.80;;;;;;5035692;28;20129;-67
2021/06/26 04:11:07;;;;;;;46.25;27.85;;;14.70;99.80;;;;;;5036803;28;20099;-66
2021/06/26 04:13:35;;;;;;;40.50;26.23;;;14.70;99.70;;;;;;5036522;28;20050;-67
2021/06/26 04:16:01;;;;;;;41.05;26.65;;;14.80;99.70;;;;;;5036797;28;20065;-66
2021/06/26 04:18:27;;;;;;;42.97;26.98;;;14.80;99.70;;;;;;5036798;28;20443;-66
2021/06/26 04:20:53;;;;;;;44.13;27.85;;;14.90;99.70;;;;;;5036786;28;20022;-66
2021/06/26 04:23:18;;;;;;;48.17;29.75;;;14.90;99.70;;;;;;5036786;28;20468;-67
2021/06/26 04:25:44;;;;;;;49.00;30.00;;;14.90;99.70;;;;;;5032377;28;20025;-66
2021/06/26 04:28:11;;;;;;;43.10;28.33;;;15.00;99.70;;;;;;5017774;28;20026;-66
2021/06/26 04:30:37;;;;;;;52.90;32.60;;;15.00;99.70;;;;;;5036576;28;20025;-67
2021/06/26 04:33:04;;;;;;;52.13;32.45;;;15.10;99.70;;;;;;5036465;28;20026;-66
2021/06/26 04:35:30;;;;;;;58.55;34.67;;;15.20;99.60;;;;;;5036264;28;20056;-67
2021/06/26 04:37:56;;;;;;;53.45;32.55;;;15.20;99.60;;;;;;5036110;28;20382;-67
2021/06/26 04:40:21;;;;;;;52.42;30.95;;;15.20;99.60;;;;;;5036324;28;20126;-67
2021/06/26 04:42:47;;;;;;;54.30;31.33;;;15.30;99.70;;;;;;5036262;28;20025;-67
2021/06/26 04:45:14;;;;;;;54.72;31.85;;;15.30;99.70;;;;;;5036456;28;20030;-67
2021/06/26 04:47:41;;;;;;;50.55;29.45;;;15.40;99.70;;;;;;5036141;28;20026;-67
2021/06/26 04:50:08;;;;;;;48.35;31.85;;;15.50;99.70;;;;;;5034871;28;20057;-67
2021/06/26 04:52:34;;;;;;;51.70;31.63;;;15.50;99.60;;;;;;5036215;28;20021;-67
2021/06/26 04:55:01;;;;;;;55.97;31.08;;;15.60;99.60;;;;;;5036085;28;20099;-67
2021/06/26 04:57:27;;;;;;;51.35;30.10;;;15.60;99.50;;;;;;5035962;28;20392;-67
2021/06/26 04:59:53;;;;;;;50.92;31.42;;;15.70;99.50;;;;;;5035749;28;20064;-67
2021/06/26 05:02:18;;;;;;;42.25;27.55;;;15.70;99.50;;;;;;5036042;28;20030;-67
2021/06/26 05:04:44;;;;;;;48.75;30.90;;;15.80;99.50;;;;;;5036085;28;20037;-67
2021/06/26 05:07:09;;;;;;;48.90;30.00;;;15.80;99.50;;;;;;5035924;28;20029;-67
2021/06/26 05:09:35;;;;;;;46.35;29.40;;;15.80;99.40;;;;;;5035083;28;20021;-66
2021/06/26 05:12:01;;;;;;;47.90;30.55;;;15.80;99.40;;;;;;5035009;28;20399;-67
2021/06/26 05:14:26;;;;;;;51.60;30.23;;;15.90;99.40;;;;;;5035572;28;20398;-67
2021/06/26 05:16:52;;;;;;;48.08;29.98;;;15.90;99.30;;;;;;5035898;28;20017;-67
2021/06/26 05:19:17;;;;;;;44.15;28.20;;;15.90;99.30;;;;;;5035736;28;20483;-67
2021/06/26 05:21:43;;;;;;;41.30;26.35;;;15.90;99.30;;;;;;5035691;28;20029;-67
2021/06/26 05:24:08;;;;;;;41.22;26.52;;;16.00;99.30;;;;;;5035492;28;20030;-67
2021/06/26 05:26:34;;;;;;;51.00;30.55;;;16.00;99.20;;;;;;5035483;28;20471;-67
2021/06/26 05:28:59;;;;;;;55.58;31.88;;;16.00;99.20;;;;;;5035125;28;20030;-67
2021/06/26 05:31:25;;;;;;;46.88;28.85;;;16.00;99.20;;;;;;5035558;28;20036;-67
2021/06/26 05:33:50;;;;;;;45.25;29.08;;;16.10;99.50;;;;;;5035426;28;20132;-67
2021/06/26 05:36:16;;;;;;;44.58;28.58;;;16.10;99.30;;;;;;5035364;28;20026;-67
2021/06/26 05:38:41;;;;;;;56.83;31.63;;;16.20;99.30;;;;;;5033965;28;20383;-67
2021/06/26 05:41:08;;;;;;;46.58;28.73;;;16.20;99.30;;;;;;5035330;28;20029;-67
2021/06/26 05:43:34;;;;;;;44.05;29.92;;;16.40;99.30;;;;;;5035093;28;20025;-67
2021/06/26 05:46:00;;;;;;;42.00;27.85;;;16.50;99.30;;;;;;5035215;28;20040;-67
2021/06/26 05:48:25;;;;;;;43.58;28.83;;;16.50;99.20;;;;;;5035232;28;20029;-67
2021/06/26 05:50:51;;;;;;;44.75;28.63;;;16.70;99.10;;;;;;5035073;28;20025;-67
2021/06/26 05:53:18;;;;;;;48.28;30.65;;;16.80;99.00;;;;;;5035111;28;20079;-67
2021/06/26 05:55:56;;;;;;;42.40;29.02;;;16.80;98.90;;;;;;5034902;28;20105;-67
2021/06/26 05:58:23;;;;;;;45.03;27.88;;;16.90;98.90;;;;;;5035139;28;20028;-67
2021/06/26 06:00:49;;;;;;;40.30;27.95;;;17.00;98.90;;;;;;5035256;28;20113;-67
2021/06/26 06:03:14;;;;;;;48.83;32.40;;;17.10;98.80;;;;;;5034754;28;20097;-67
2021/06/26 06:05:40;;;;;;;47.70;31.65;;;17.20;98.80;;;;;;5034863;28;20091;-67
2021/06/26 06:08:05;;;;;;;41.50;28.65;;;17.40;98.70;;;;;;5034713;28;20033;-67
2021/06/26 06:10:31;;;;;;;41.50;28.85;;;17.50;98.60;;;;;;5034727;28;20033;-67
2021/06/26 06:12:56;;;;;;;41.20;28.00;;;17.60;98.50;;;;;;5034747;28;20400;-67
2021/06/26 06:15:22;;;;;;;38.83;29.15;;;17.80;98.50;;;;;;5034600;28;20029;-67
2021/06/26 06:17:47;;;;;;;47.25;34.15;;;17.90;98.20;;;;;;5034712;28;20028;-67
2021/06/26 06:20:13;;;;;;;44.80;31.65;;;18.10;97.90;;;;;;5034564;28;20034;-67
2021/06/26 06:22:38;;;;;;;43.10;28.90;;;18.20;97.70;;;;;;5032389;28;20534;-67
2021/06/26 06:25:09;;;;;;;32.97;25.52;;;18.30;97.90;;;;;;5027284;28;20032;-67
2021/06/26 06:27:36;;;;;;;36.03;26.27;;;18.50;97.50;;;;;;5034203;28;20033;-67
2021/06/26 06:30:03;;;;;;;32.15;25.25;;;18.60;97.10;;;;;;5033108;28;20026;-67
2021/06/26 06:32:29;;;;;;;34.17;24.75;;;18.70;96.90;;;;;;5034253;28;20040;-67
2021/06/26 06:34:54;;;;;;;31.55;23.00;;;18.80;96.90;;;;;;5034457;28;20033;-67
2021/06/26 06:37:20;;;;;;;28.23;22.00;;;19.00;96.60;;;;;;5034214;28;20357;-67
2021/06/26 06:39:45;;;;;;;28.02;21.20;;;19.20;96.40;;;;;;5034149;28;20022;-67
2021/06/26 06:42:11;;;;;;;29.27;20.52;;;19.20;95.80;;;;;;5033911;28;20036;-68
2021/06/26 06:44:36;;;;;;;28.98;19.75;;;19.30;95.90;;;;;;5034074;28;20487;-67
2021/06/26 06:47:02;;;;;;;26.63;20.77;;;19.40;95.60;;;;;;5034047;28;20081;-67
2021/06/26 06:49:28;;;;;;;28.05;19.60;;;19.50;95.50;;;;;;5034076;28;20036;-67
2021/06/26 06:51:53;;;;;;;23.63;18.80;;;19.60;95.30;;;;;;5032856;28;20049;-67
2021/06/26 06:54:19;;;;;;;23.85;18.00;;;19.70;95.20;;;;;;5032604;28;20030;-67
2021/06/26 06:56:44;;;;;;;22.60;16.92;;;19.80;94.90;;;;;;5033853;28;20021;-67
2021/06/26 06:59:10;;;;;;;22.00;17.65;;;19.90;94.80;;;;;;5033860;28;20032;-67
2021/06/26 07:01:35;;;;;;;22.08;16.77;;;20.00;94.40;;;;;;5033932;28;20025;-67
2021/06/26 07:04:01;;;;;;;22.33;15.93;;;20.10;94.10;;;;;;5033769;28;20026;-67
2021/06/26 07:06:26;;;;;;;20.80;16.10;;;20.10;93.80;;;;;;5033721;28;20036;-67
2021/06/26 07:08:52;;;;;;;19.67;15.80;;;20.10;93.70;;;;;;5033722;28;20123;-68
2021/06/26 07:11:17;;;;;;;19.98;15.00;;;20.20;93.40;;;;;;5033360;28;20124;-67
2021/06/26 07:13:43;;;;;;;18.80;14.45;;;20.30;93.00;;;;;;5033416;28;20513;-67
2021/06/26 07:16:09;;;;;;;19.55;14.82;;;20.30;92.60;;;;;;5033864;28;20044;-67
2021/06/26 07:18:34;;;;;;;17.65;13.38;;;20.40;92.70;;;;;;5033568;28;20068;-67
2021/06/26 07:21:00;;;;;;;17.55;13.90;;;20.50;92.40;;;;;;5033490;28;20040;-67
2021/06/26 07:23:25;;;;;;;16.85;14.32;;;20.60;91.90;;;;;;5033224;28;20032;-67
2021/06/26 07:25:51;;;;;;;18.17;14.43;;;20.60;91.30;;;;;;5033307;28;20034;-67
2021/06/26 07:28:16;;;;;;;15.07;12.82;;;20.60;91.30;;;;;;5033166;28;20040;-67
2021/06/26 07:30:42;;;;;;;18.60;13.18;;;20.70;91.50;;;;;;5033565;28;20049;-67
2021/06/26 07:33:07;;;;;;;17.65;14.80;;;20.70;91.00;;;;;;5032717;28;20033;-67
2021/06/26 07:35:33;;;;;;;17.75;14.38;;;20.80;90.80;;;;;;5033642;28;20075;-67
2021/06/26 07:37:58;;;;;;;20.40;14.20;;;20.90;90.50;;;;;;5033223;28;20462;-67
2021/06/26 07:40:25;;;;;;;17.83;14.95;;;21.00;90.20;;;;;;5033775;28;20026;-68
2021/06/26 07:42:51;;;;;;;15.80;13.32;;;21.10;88.70;;;;;;5033143;28;20045;-67
2021/06/26 07:45:19;;;;;;;18.35;14.00;;;21.00;88.60;;;;;;5033234;28;20068;-68
2021/06/26 07:47:44;;;;;;;14.95;12.93;;;21.10;87.70;;;;;;5033550;28;20109;-67
2021/06/26 07:50:10;;;;;;;17.42;13.40;;;21.10;87.60;;;;;;5033075;28;20104;-68
2021/06/26 07:52:36;;;;;;;15.30;13.45;;;21.20;87.60;;;;;;5033052;28;20021;-68
2021/06/26 07:55:03;;;;;;;18.33;14.35;;;21.20;86.90;;;;;;5033111;28;20033;-68
2021/06/26 07:57:29;;;;;;;15.45;13.52;;;21.30;86.20;;;;;;5032979;28;20029;-68
2021/06/26 07:59:55;;;;;;;22.60;15.57;;;21.40;85.60;;;;;;5033122;28;20024;-68
2021/06/26 08:02:20;;;;;;;17.98;14.82;;;21.40;84.10;;;;;;5031747;28;20026;-68
2021/06/26 08:04:46;;;;;;;19.40;15.30;;;21.40;84.10;;;;;;5032998;28;20029;-68
2021/06/26 08:07:11;;;;;;;17.48;12.68;;;21.50;84.60;;;;;;5032961;28;20156;-67
2021/06/26 08:09:37;;;;;;;18.45;13.45;;;21.60;85.10;;;;;;5033000;28;20387;-68
2021/06/26 08:12:03;;;;;;;18.90;12.93;;;21.80;85.00;;;;;;5031380;28;20451;-67
2021/06/26 08:14:29;;;;;;;16.75;13.93;;;21.90;85.10;;;;;;5031598;28;20120;-67
2021/06/26 08:16:54;;;;;;;18.38;14.48;;;22.00;84.20;;;;;;5032978;28;20112;-67
2021/06/26 08:19:20;;;;;;;20.13;15.15;;;22.00;83.20;;;;;;5032907;28;20035;-67
2021/06/26 08:21:46;;;;;;;16.60;14.13;;;22.10;83.10;;;;;;5015458;28;20121;-68
2021/06/26 08:24:12;;;;;;;20.25;15.40;;;22.30;82.70;;;;;;5014005;28;20033;-67
2021/06/26 08:26:38;;;;;;;19.95;16.40;;;22.30;81.40;;;;;;5032548;28;20030;-67
2021/06/26 08:29:04;;;;;;;16.38;14.35;;;22.30;81.10;;;;;;5032919;28;20044;-67
2021/06/26 08:31:29;;;;;;;16.85;13.38;;;22.20;82.10;;;;;;5032993;28;20022;-67
2021/06/26 08:33:55;;;;;;;19.90;16.13;;;22.30;82.30;;;;;;5032936;28;20021;-67
2021/06/26 08:36:20;;;;;;;17.58;13.63;;;22.30;80.40;;;;;;5032582;28;20030;-68
2021/06/26 08:38:46;;;;;;;16.38;13.93;;;22.40;81.20;;;;;;5033082;28;20057;-68
2021/06/26 08:41:12;;;;;;;20.00;15.32;;;22.70;80.70;;;;;;5032527;28;20036;-68
2021/06/26 08:43:38;;;;;;;18.52;13.93;;;22.80;79.80;;;;;;5032791;28;20017;-67
2021/06/26 08:46:04;;;;;;;19.80;14.32;;;22.90;79.00;;;;;;5035826;28;20025;-68
2021/06/26 08:48:30;;;;;;;20.67;17.15;;;23.00;78.50;;;;;;5036187;28;20382;-68
2021/06/26 08:50:56;;;;;;;18.20;15.18;;;23.10;77.90;;;;;;5036235;28;20103;-68
2021/06/26 08:53:22;;;;;;;18.45;14.85;;;23.20;78.00;;;;;;5036304;28;20471;-67
2021/06/26 08:55:52;;;;;;;17.38;14.18;;;23.30;77.20;;;;;;5036509;28;20056;-67
2021/06/26 08:58:18;;;;;;;16.15;13.50;;;23.30;76.80;;;;;;5036417;28;20033;-67
2021/06/26 09:00:43;;;;;;;16.33;14.57;;;23.30;76.10;;;;;;5034832;28;20022;-67
2021/06/26 09:03:12;;;;;;;15.57;13.88;;;23.40;76.00;;;;;;5035959;28;20032;-68
2021/06/26 09:05:39;;;;;;;15.02;12.63;;;23.50;75.10;;;;;;5035906;28;20037;-67
2021/06/26 09:08:13;;;;;;;13.60;12.07;;;23.60;74.90;;;;;;5034644;28;20025;-68
2021/06/26 09:10:40;;;;;;;16.33;12.82;;;23.60;75.50;;;;;;5035900;28;20036;-67
2021/06/26 09:13:11;;;;;;;15.65;12.93;;;23.70;74.70;;;;;;5035806;28;20049;-67
2021/06/26 09:15:36;;;;;;;15.75;12.00;;;23.80;73.90;;;;;;5035717;28;20065;-68
2021/06/26 09:18:10;;;;;;;18.05;15.13;;;23.70;74.00;;;;;;5035822;28;20429;-68
2021/06/26 09:20:39;;;;;;;16.08;13.57;;;23.70;74.20;;;;;;5015987;28;20033;-68
2021/06/26 09:23:15;;;;;;;13.88;12.35;;;23.90;74.20;;;;;;5015611;28;20022;-68
2021/06/26 09:25:40;;;;;;;17.52;14.15;;;24.00;73.80;;;;;;5016021;28;20499;-67
2021/06/26 09:28:10;;;;;;;14.85;13.30;;;24.10;72.10;;;;;;5015759;28;20026;-68
2021/06/26 09:30:37;;;;;;;19.15;14.65;;;24.20;72.30;;;;;;5015975;28;20028;-68
2021/06/26 09:33:10;;;;;;;12.90;10.85;;;24.30;72.20;;;;;;5015701;28;20026;-67
2021/06/26 09:35:36;;;;;;;14.13;11.63;;;24.40;70.90;;;;;;5015386;28;20034;-67
2021/06/26 09:38:07;;;;;;;15.95;13.07;;;24.50;70.30;;;;;;5015584;28;20387;-67
2021/06/26 09:40:33;;;;;;;13.83;11.87;;;24.60;68.70;;;;;;5015620;28;20018;-67
2021/06/26 09:42:59;;;;;;;15.63;11.85;;;24.70;68.30;;;;;;5015503;28;20491;-67
2021/06/26 09:45:24;;;;;;;14.60;10.13;;;24.70;67.90;;;;;;5015549;28;20032;-68
2021/06/26 09:47:50;;;;;;;13.80;11.43;;;24.70;66.70;;;;;;5020407;28;20025;-67
2021/06/26 09:50:26;;;;;;;13.00;11.30;;;24.80;67.90;;;;;;5034818;28;20383;-67
2021/06/26 09:52:54;;;;;;;14.57;12.93;;;24.90;65.70;;;;;;5033757;28;20507;-68
2021/06/26 09:55:40;;;;;;;16.00;12.32;;;24.80;65.10;;;;;;5035104;28;20041;-67
2021/06/26 09:58:17;;;;;;;14.65;11.73;;;24.80;66.50;;;;;;5034560;28;20049;-67
2021/06/26 10:00:44;;;;;;;12.20;10.77;;;24.90;65.90;;;;;;5034743;28;20033;-68
2021/06/26 10:03:11;;;;;;;13.38;10.18;;;25.00;63.90;;;;;;5034790;28;20120;-67
2021/06/26 10:05:38;;;;;;;12.75;10.50;;;25.10;63.90;;;;;;5034989;28;20029;-68
2021/06/26 10:08:05;;;;;;;12.40;9.32;;;25.20;63.70;;;;;;5035035;28;20416;-68
2021/06/26 10:10:32;;;;;;;14.77;10.65;;;25.30;62.50;;;;;;5034548;28;20029;-68
2021/06/26 10:12:58;;;;;;;11.23;9.77;;;25.40;63.60;;;;;;5034447;28;20095;-67
2021/06/26 10:15:27;;;;;;;11.60;9.07;;;25.50;64.10;;;;;;5034344;28;20045;-67
2021/06/26 10:17:53;;;;;;;10.00;7.85;;;25.60;61.40;;;;;;5034353;28;20032;-67
2021/06/26 10:20:21;;;;;;;6.32;5.72;;;25.50;60.00;;;;;;5034796;28;20017;-67
2021/06/26 10:22:52;;;;;;;9.63;8.52;;;25.50;59.40;;;;;;5034479;28;20029;-68
2021/06/26 10:25:18;;;;;;;9.77;8.68;;;25.50;59.10;;;;;;5034642;28;20136;-68
2021/06/26 10:27:44;;;;;;;12.32;10.02;;;25.50;59.40;;;;;;5034311;28;20061;-67
2021/06/26 10:30:13;;;;;;;11.35;9.40;;;25.60;59.30;;;;;;5034315;28;20105;-68
2021/06/26 10:32:49;;;;;;;11.65;10.18;;;25.70;59.80;;;;;;5034290;28;20029;-67
2021/06/26 10:35:15;;;;;;;11.88;9.80;;;25.70;60.00;;;;;;5034314;28;20091;-67
2021/06/26 10:37:41;;;;;;;13.98;11.75;;;25.80;60.20;;;;;;5034156;28;20464;-67
2021/06/26 10:40:09;;;;;;;13.00;11.43;;;25.90;59.60;;;;;;5034552;28;20033;-67
2021/06/26 10:42:37;;;;;;;11.77;10.63;;;26.00;59.50;;;;;;5033965;28;20068;-67
2021/06/26 10:45:05;;;;;;;13.73;10.90;;;26.00;59.30;;;;;;5034440;28;20064;-68
2021/06/26 10:47:39;;;;;;;14.57;12.60;;;26.10;59.20;;;;;;5034239;28;20052;-68
2021/06/26 10:50:13;;;;;;;15.43;11.30;;;26.20;59.20;;;;;;5034065;28;20025;-67
2021/06/26 10:52:53;;;;;;;13.45;12.05;;;26.40;58.30;;;;;;5033997;28;20380;-67
2021/06/26 10:55:38;;;;;;;14.02;11.80;;;26.60;58.20;;;;;;5033773;28;20125;-68
2021/06/26 10:58:06;;;;;;;11.27;10.07;;;26.80;56.30;;;;;;5032545;28;20104;-67
2021/06/26 11:00:40;;;;;;;11.48;10.13;;;26.80;56.30;;;;;;5032588;28;20025;-67
2021/06/26 11:03:19;;;;;;;14.85;10.82;;;26.90;56.20;;;;;;5033698;28;20027;-68
2021/06/26 11:05:45;;;;;;;12.32;10.38;;;27.00;57.00;;;;;;5033730;28;20033;-68
2021/06/26 11:08:15;;;;;;;14.82;10.07;;;26.90;56.70;;;;;;5032698;28;20037;-68
2021/06/26 11:10:59;;;;;;;10.80;9.48;;;26.80;56.50;;;;;;5033643;28;20079;-67
2021/06/26 11:13:29;;;;;;;13.90;10.55;;;26.90;55.60;;;;;;5033347;28;20480;-67
2021/06/26 11:16:09;;;;;;;12.63;9.95;;;26.90;54.80;;;;;;5029511;28;20037;-68
2021/06/26 11:18:35;;;;;;;12.60;10.00;;;27.20;55.00;;;;;;5013964;28;20025;-67
2021/06/26 11:21:01;;;;;;;10.98;8.45;;;27.40;54.00;;;;;;5013916;28;20384;-67
2021/06/26 11:23:28;;;;;;;10.98;9.50;;;27.60;53.30;;;;;;5013732;28;20029;-67
2021/06/26 11:26:04;;;;;;;10.50;9.43;;;28.00;52.80;;;;;;5013595;28;20503;-67
2021/06/26 11:28:39;;;;;;;10.85;9.75;;;28.30;53.00;;;;;;5013556;28;20030;-67
2021/06/26 11:31:05;;;;;;;11.20;10.10;;;28.60;52.40;;;;;;5029282;28;20062;-67
2021/06/26 11:33:37;;;;;;;13.57;10.45;;;28.80;51.30;;;;;;5013739;28;20108;-67
2021/06/26 11:36:08;;;;;;;12.35;11.10;;;28.90;50.10;;;;;;5016583;28;20026;-67
2021/06/26 11:38:33;;;;;;;14.20;11.27;;;28.90;50.40;;;;;;5033212;28;20032;-67
2021/06/26 11:41:04;;;;;;;11.15;10.00;;;28.90;49.80;;;;;;5032113;28;20446;-68
2021/06/26 11:43:30;;;;;;;12.43;9.57;;;28.80;50.40;;;;;;5033457;28;20014;-68
2021/06/26 11:45:56;;;;;;;11.45;10.35;;;28.60;51.00;;;;;;5033452;28;20056;-68
2021/06/26 11:48:22;;;;;;;13.57;12.23;;;28.40;51.50;;;;;;5033001;28;20053;-67
2021/06/26 11:50:57;;;;;;;15.38;11.02;;;28.30;52.00;;;;;;5033057;28;20025;-68
2021/06/26 11:53:27;;;;;;;15.93;13.20;;;28.10;53.10;;;;;;5033714;28;20036;-68
2021/06/26 11:55:55;;;;;;;14.73;13.13;;;28.00;53.50;;;;;;5033022;28;20033;-68
2021/06/26 11:58:41;;;;;;;14.15;12.73;;;27.80;53.00;;;;;;5033126;28;20052;-68
2021/06/26 12:01:08;;;;;;;15.57;13.88;;;27.40;53.20;;;;;;5032700;28;20030;-68
2021/06/26 12:03:35;;;;;;;18.73;15.48;;;27.30;53.60;;;;;;5033050;28;20554;-68
2021/06/26 12:06:06;;;;;;;15.55;14.02;;;27.40;54.00;;;;;;5032817;28;20088;-68
2021/06/26 12:08:41;;;;;;;16.02;14.35;;;27.50;55.10;;;;;;5033005;28;20026;-68
2021/06/26 12:11:12;;;;;;;17.63;15.77;;;27.70;54.20;;;;;;5033062;28;20048;-68
2021/06/26 12:13:39;;;;;;;19.52;16.40;;;27.70;55.00;;;;;;5031488;28;20046;-68
2021/06/26 12:16:05;;;;;;;17.25;14.27;;;27.50;54.90;;;;;;5028154;28;20044;-68
2021/06/26 12:18:30;;;;;;;16.35;13.43;;;27.40;55.50;;;;;;5011915;28;20022;-68
2021/06/26 12:20:56;;;;;;;15.65;12.95;;;27.40;55.30;;;;;;5016218;28;20407;-68
2021/06/26 12:23:22;;;;;;;12.65;11.40;;;27.40;56.10;;;;;;5017123;28;20022;-68
2021/06/26 12:25:48;;;;;;;11.02;9.93;;;27.40;56.00;;;;;;5017057;28;20430;-68